Time;durP1;ratioP1;P1;durP2;ratioP2;P2;SDS_P1;SDS_P2;PMS_P1;PMS_P2;Temp;Humidity;BMP_temperature;BMP_pressure;BME280_temperature;BME280_humidity;BME280_pressure;Samples;Min_cycle;Max_cycle;Signal;HPM_P1;HPM_P2
2022/01/06 00:00:29;;;;;;;16.30;5.47;;;2.20;98.30;;;;;;5117429;28;20494;-43
2022/01/06 00:02:56;;;;;;;11.60;4.67;;;2.20;98.50;;;;;;5115402;28;20587;-44
2022/01/06 00:05:22;;;;;;;7.30;3.67;;;2.20;98.50;;;;;;5115599;28;20278;-44
2022/01/06 00:07:48;;;;;;;8.97;4.07;;;2.20;98.60;;;;;;5116581;28;20524;-44
2022/01/06 00:10:14;;;;;;;5.63;4.20;;;2.20;99.00;;;;;;5116787;28;20208;-43
2022/01/06 00:13:06;;;;;;;7.60;4.90;;;2.30;99.40;;;;;;5096267;28;20184;-43
2022/01/06 00:23:31;;;;;;;9.83;5.07;;;2.50;99.20;;;;;;5137940;27;20186;-44
2022/01/06 00:25:57;;;;;;;7.13;4.20;;;2.40;98.90;;;;;;5138599;27;20471;-44
2022/01/06 00:28:23;;;;;;;9.03;4.10;;;2.40;99.00;;;;;;5138445;27;20532;-44
2022/01/06 00:30:49;;;;;;;7.47;3.97;;;2.40;99.10;;;;;;5139036;27;20522;-42
2022/01/06 00:33:15;;;;;;;9.20;4.67;;;2.30;99.10;;;;;;5138521;27;20630;-43
2022/01/06 00:35:41;;;;;;;5.90;3.37;;;2.30;99.30;;;;;;5119775;28;20171;-42
2022/01/06 00:38:07;;;;;;;8.37;3.40;;;2.30;99.30;;;;;;5138676;27;20930;-42
2022/01/06 00:40:34;;;;;;;7.43;3.40;;;2.20;99.20;;;;;;5138122;27;20172;-44
2022/01/06 00:43:02;;;;;;;7.03;4.03;;;2.20;99.40;;;;;;5138759;27;20443;-44
2022/01/06 00:45:30;;;;;;;11.60;3.90;;;2.20;99.40;;;;;;5138915;27;20435;-43
2022/01/06 00:47:56;;;;;;;7.33;3.33;;;2.20;99.50;;;;;;5120832;28;20447;-42
2022/01/06 00:50:22;;;;;;;8.27;3.70;;;2.20;99.60;;;;;;5121172;27;20749;-44
2022/01/06 00:52:49;;;;;;;5.50;3.07;;;2.20;99.60;;;;;;5139233;27;20203;-44
2022/01/06 00:55:15;;;;;;;7.87;4.20;;;2.20;99.60;;;;;;5138747;27;20463;-43
2022/01/06 00:57:40;;;;;;;7.50;3.60;;;2.20;99.60;;;;;;5138977;27;20439;-43
2022/01/06 01:00:07;;;;;;;4.87;3.33;;;2.20;99.60;;;;;;5103778;27;20424;-43
2022/01/06 01:02:34;;;;;;;5.43;4.10;;;2.20;99.60;;;;;;5120029;28;20192;-43
2022/01/06 01:05:00;;;;;;;6.87;3.53;;;2.20;99.30;;;;;;5137389;27;20404;-43
2022/01/06 01:07:29;;;;;;;6.13;3.90;;;2.20;99.20;;;;;;5136784;27;20748;-42
2022/01/06 01:09:54;;;;;;;7.90;4.13;;;2.30;99.30;;;;;;5135411;27;20234;-43
2022/01/06 01:12:23;;;;;;;4.10;3.20;;;2.30;99.20;;;;;;5117991;28;20888;-43
2022/01/06 01:15:06;;;;;;;6.47;3.47;;;2.30;99.10;;;;;;5137076;28;20174;-43
2022/01/06 01:17:32;;;;;;;6.83;3.30;;;2.30;99.10;;;;;;5136008;28;21108;-42
2022/01/06 01:19:58;;;;;;;4.77;3.53;;;2.30;99.10;;;;;;5126347;28;20441;-43
2022/01/06 01:22:24;;;;;;;6.73;3.90;;;2.30;99.00;;;;;;5132682;28;20861;-44
2022/01/06 01:24:50;;;;;;;7.00;3.40;;;2.30;99.10;;;;;;5138045;28;20420;-43
2022/01/06 01:27:20;;;;;;;6.13;3.77;;;2.30;99.20;;;;;;5138256;28;20195;-45
2022/01/06 01:29:58;;;;;;;7.50;4.30;;;2.30;99.30;;;;;;5120062;28;20301;-44
2022/01/06 01:32:34;;;;;;;6.10;3.63;;;2.30;99.10;;;;;;5137759;28;20781;-43
2022/01/06 01:35:01;;;;;;;6.13;3.67;;;2.30;99.20;;;;;;5138593;28;20408;-43
2022/01/06 01:37:31;;;;;;;10.37;4.80;;;2.30;99.20;;;;;;5125998;28;20425;-43
2022/01/06 01:39:57;;;;;;;8.10;3.40;;;2.30;99.30;;;;;;5116686;28;20417;-44
2022/01/06 01:42:24;;;;;;;5.37;3.37;;;2.30;99.20;;;;;;5117406;28;20707;-43
2022/01/06 01:44:51;;;;;;;6.30;3.83;;;2.30;99.20;;;;;;5099505;28;20453;-43
2022/01/06 01:47:32;;;;;;;5.97;4.00;;;2.30;99.20;;;;;;5117555;28;20497;-44
2022/01/06 01:50:21;;;;;;;4.37;3.50;;;2.30;99.20;;;;;;5117724;28;20465;-42
2022/01/06 01:52:54;;;;;;;5.83;3.13;;;2.30;99.20;;;;;;5118313;27;20525;-43
2022/01/06 01:55:41;;;;;;;4.60;3.33;;;2.20;99.40;;;;;;5120748;28;20469;-43
2022/01/06 01:58:08;;;;;;;9.40;3.97;;;2.20;99.80;;;;;;5121085;28;20445;-44
2022/01/06 02:00:33;;;;;;;7.80;4.00;;;2.20;99.70;;;;;;5120947;28;20471;-43
2022/01/06 02:02:59;;;;;;;4.77;3.87;;;2.10;99.80;;;;;;5121238;28;20445;-44
2022/01/06 02:05:26;;;;;;;7.00;3.70;;;2.10;99.90;;;;;;5121121;28;20451;-43
2022/01/06 02:07:53;;;;;;;9.43;3.63;;;2.10;99.90;;;;;;5120927;28;20189;-42
2022/01/06 02:10:40;;;;;;;4.77;3.00;;;2.10;99.90;;;;;;5121176;28;20473;-43
2022/01/06 02:13:06;;;;;;;7.23;2.70;;;2.10;99.90;;;;;;5121015;28;20421;-42
2022/01/06 02:15:32;;;;;;;4.57;3.10;;;2.10;99.90;;;;;;5120999;28;20413;-44
2022/01/06 02:17:58;;;;;;;6.90;3.53;;;2.10;99.90;;;;;;5085914;28;20569;-42
2022/01/06 02:20:24;;;;;;;6.07;3.47;;;2.10;99.90;;;;;;5120898;28;20267;-43
2022/01/06 02:22:51;;;;;;;4.53;3.50;;;2.10;99.90;;;;;;5121010;28;20819;-44
2022/01/06 02:25:17;;;;;;;4.70;3.43;;;2.00;99.90;;;;;;5120478;28;20433;-43
2022/01/06 02:27:46;;;;;;;5.37;3.40;;;2.00;99.90;;;;;;5120630;28;20409;-43
2022/01/06 02:30:12;;;;;;;8.47;3.50;;;2.00;99.90;;;;;;5120858;28;20472;-44
2022/01/06 02:32:38;;;;;;;4.27;3.30;;;2.00;99.90;;;;;;5102817;28;20433;-44
2022/01/06 02:35:09;;;;;;;7.20;3.47;;;2.00;99.90;;;;;;5120404;28;20838;-44
2022/01/06 02:37:35;;;;;;;7.50;3.70;;;2.00;99.90;;;;;;5120839;28;20545;-42
2022/01/06 02:40:01;;;;;;;13.57;4.03;;;2.00;99.90;;;;;;5120888;28;20880;-42
2022/01/06 02:42:27;;;;;;;6.13;4.10;;;2.00;99.90;;;;;;5120238;28;20426;-43
2022/01/06 02:44:53;;;;;;;7.30;3.90;;;2.00;99.90;;;;;;5103558;28;20196;-43
2022/01/06 02:47:21;;;;;;;6.83;3.70;;;2.00;99.90;;;;;;5120390;28;20436;-43
2022/01/06 02:49:46;;;;;;;8.83;3.40;;;2.00;99.90;;;;;;5120243;28;20215;-43
2022/01/06 02:52:12;;;;;;;7.03;3.50;;;2.00;99.90;;;;;;5120452;28;20419;-43
2022/01/06 02:54:37;;;;;;;4.37;3.83;;;2.00;99.90;;;;;;5118838;28;20597;-43
2022/01/06 02:57:04;;;;;;;7.23;3.70;;;2.10;99.90;;;;;;5119076;28;20184;-43
2022/01/06 02:59:30;;;;;;;5.40;4.07;;;2.00;99.90;;;;;;5119024;28;20473;-42
2022/01/06 03:01:55;;;;;;;8.30;3.60;;;2.00;99.90;;;;;;5119343;28;20428;-43
2022/01/06 03:04:23;;;;;;;9.23;3.73;;;2.10;99.90;;;;;;5118573;28;20425;-43
2022/01/06 03:06:49;;;;;;;7.03;4.57;;;2.00;99.90;;;;;;5119278;28;20192;-44
2022/01/06 03:09:15;;;;;;;7.57;3.90;;;2.00;99.90;;;;;;5119641;28;20592;-43
2022/01/06 03:11:43;;;;;;;9.23;3.90;;;2.00;99.90;;;;;;5119683;28;20574;-44
2022/01/06 03:14:09;;;;;;;3.70;3.30;;;2.00;99.90;;;;;;5118989;28;20568;-43
2022/01/06 03:16:35;;;;;;;5.87;4.07;;;2.00;99.90;;;;;;5119471;28;20526;-44
2022/01/06 03:19:01;;;;;;;6.20;3.80;;;2.00;99.90;;;;;;5120017;28;20438;-44
2022/01/06 03:21:27;;;;;;;5.50;4.03;;;2.00;99.90;;;;;;5119864;28;20512;-44
2022/01/06 03:23:55;;;;;;;10.97;4.33;;;2.00;99.90;;;;;;5119785;28;20512;-44
2022/01/06 03:26:21;;;;;;;5.60;3.73;;;2.00;99.90;;;;;;5119946;28;20443;-44
2022/01/06 03:28:49;;;;;;;7.40;3.90;;;2.00;99.90;;;;;;5120033;28;20458;-44
2022/01/06 03:31:14;;;;;;;9.10;3.37;;;2.00;99.90;;;;;;5119485;28;20185;-42
2022/01/06 03:33:40;;;;;;;6.07;3.43;;;2.00;99.90;;;;;;5119283;28;20436;-44
2022/01/06 03:36:06;;;;;;;6.37;3.83;;;2.00;99.90;;;;;;5119521;28;20188;-44
2022/01/06 03:38:34;;;;;;;4.40;3.20;;;2.00;99.90;;;;;;5101614;28;20172;-43
2022/01/06 03:41:00;;;;;;;5.47;3.37;;;2.00;99.90;;;;;;5118841;28;20176;-42
2022/01/06 03:43:28;;;;;;;6.73;4.27;;;2.00;99.90;;;;;;5119452;28;20476;-44
2022/01/06 03:45:54;;;;;;;6.07;3.80;;;2.00;99.90;;;;;;5118986;28;20546;-43
2022/01/06 03:48:20;;;;;;;8.50;4.47;;;2.00;99.90;;;;;;5119053;28;20425;-43
2022/01/06 03:50:46;;;;;;;4.90;3.30;;;2.00;99.90;;;;;;5118985;28;20446;-43
2022/01/06 03:53:11;;;;;;;5.43;3.50;;;2.00;99.90;;;;;;5119376;28;20176;-43
2022/01/06 03:55:39;;;;;;;7.33;3.83;;;2.00;99.90;;;;;;5118714;28;20519;-42
2022/01/06 03:58:05;;;;;;;7.40;3.40;;;1.90;99.90;;;;;;5118645;28;20569;-44
2022/01/06 04:00:31;;;;;;;6.40;3.50;;;1.90;99.90;;;;;;5118625;28;20546;-44
2022/01/06 04:02:57;;;;;;;8.70;3.90;;;1.90;99.90;;;;;;5119099;28;20517;-43
2022/01/06 04:05:23;;;;;;;4.73;3.20;;;2.00;99.90;;;;;;5101239;28;20418;-43
2022/01/06 04:07:48;;;;;;;6.57;3.63;;;1.90;99.90;;;;;;5118636;28;20263;-43
2022/01/06 04:10:14;;;;;;;6.70;3.90;;;1.90;99.90;;;;;;5119010;28;20478;-43
2022/01/06 04:12:40;;;;;;;6.50;3.93;;;2.00;99.90;;;;;;5118440;28;20186;-43
2022/01/06 04:15:12;;;;;;;5.97;3.73;;;2.00;99.90;;;;;;5100117;28;20172;-43
2022/01/06 04:17:38;;;;;;;6.97;3.90;;;2.00;99.90;;;;;;5118297;28;20188;-44
2022/01/06 04:20:07;;;;;;;5.20;3.70;;;2.00;99.90;;;;;;5118243;28;20474;-44
2022/01/06 04:22:33;;;;;;;9.40;3.73;;;2.00;99.90;;;;;;5117912;28;20440;-43
2022/01/06 04:24:58;;;;;;;7.13;4.47;;;2.00;99.90;;;;;;5118213;28;20429;-43
2022/01/06 04:27:24;;;;;;;6.50;4.10;;;2.00;99.90;;;;;;5117459;28;20894;-44
2022/01/06 04:29:50;;;;;;;6.97;3.73;;;2.00;99.90;;;;;;5117739;28;20552;-43
2022/01/06 04:32:15;;;;;;;5.93;3.50;;;2.00;99.90;;;;;;5117253;28;20279;-45
2022/01/06 04:34:41;;;;;;;6.03;4.30;;;2.00;99.90;;;;;;5117713;28;20255;-43
2022/01/06 04:37:06;;;;;;;8.17;4.03;;;2.00;99.90;;;;;;5117702;28;20230;-44
2022/01/06 04:39:32;;;;;;;6.60;3.93;;;2.00;99.90;;;;;;5117763;28;20181;-44
2022/01/06 04:41:58;;;;;;;6.63;4.37;;;2.00;99.90;;;;;;5117892;28;20199;-42
2022/01/06 04:44:23;;;;;;;5.97;3.93;;;2.00;99.90;;;;;;5099564;28;20184;-43
2022/01/06 04:46:55;;;;;;;4.10;3.33;;;2.00;99.90;;;;;;5117694;28;20188;-44
2022/01/06 04:49:23;;;;;;;10.57;4.77;;;2.00;99.90;;;;;;5118553;28;20309;-43
2022/01/06 04:51:49;;;;;;;6.83;4.17;;;1.90;99.90;;;;;;5118405;28;20749;-44
2022/01/06 04:54:15;;;;;;;6.33;4.83;;;1.90;99.90;;;;;;5117558;28;20469;-43
2022/01/06 04:56:41;;;;;;;4.97;3.80;;;1.90;99.90;;;;;;5117867;28;20497;-43
2022/01/06 04:59:08;;;;;;;5.60;3.93;;;1.90;99.90;;;;;;5118135;28;20257;-43
2022/01/06 05:01:40;;;;;;;5.17;4.13;;;1.90;99.90;;;;;;5118568;28;20444;-44
2022/01/06 05:04:06;;;;;;;6.50;4.13;;;1.90;99.90;;;;;;5118127;28;20436;-46
2022/01/06 05:06:32;;;;;;;4.27;3.87;;;1.90;99.90;;;;;;5100600;28;20672;-46
2022/01/06 05:08:58;;;;;;;5.63;4.47;;;1.90;99.90;;;;;;5118480;28;20215;-46
2022/01/06 05:11:23;;;;;;;5.70;5.10;;;2.00;99.90;;;;;;5118384;28;20421;-47
2022/01/06 05:13:50;;;;;;;8.87;4.50;;;2.00;99.90;;;;;;5117745;28;20197;-46
2022/01/06 05:16:15;;;;;;;6.43;4.97;;;2.00;99.90;;;;;;5117880;28;20172;-46
2022/01/06 05:18:41;;;;;;;7.17;4.97;;;2.00;99.90;;;;;;5099915;28;20461;-46
2022/01/06 05:21:08;;;;;;;8.10;4.80;;;2.00;99.90;;;;;;5117485;28;20252;-46
2022/01/06 05:23:38;;;;;;;11.00;6.43;;;2.10;99.90;;;;;;5114853;28;20456;-46
2022/01/06 05:26:04;;;;;;;8.37;5.53;;;2.10;99.90;;;;;;5114519;28;20429;-46
2022/01/06 05:28:29;;;;;;;9.90;6.60;;;2.10;99.90;;;;;;5133755;27;20730;-46
2022/01/06 05:30:56;;;;;;;8.33;5.80;;;2.10;99.90;;;;;;5121889;28;20173;-46
2022/01/06 05:33:22;;;;;;;5.33;4.83;;;2.10;99.90;;;;;;5126149;27;20191;-46
2022/01/06 05:35:48;;;;;;;5.07;4.40;;;2.10;99.90;;;;;;5108114;28;20421;-46
2022/01/06 05:38:14;;;;;;;6.90;4.47;;;2.10;99.90;;;;;;5121405;28;20701;-46
2022/01/06 05:40:39;;;;;;;7.70;5.03;;;2.00;99.90;;;;;;5121795;28;20181;-46
2022/01/06 05:43:05;;;;;;;7.40;5.10;;;2.10;99.90;;;;;;5121426;28;20746;-46
2022/01/06 05:45:31;;;;;;;6.70;5.23;;;2.10;99.90;;;;;;5121303;28;20471;-46
2022/01/06 05:47:56;;;;;;;9.23;5.13;;;2.00;99.90;;;;;;5103758;28;20202;-46
2022/01/06 05:50:22;;;;;;;6.17;4.90;;;2.00;99.90;;;;;;5120163;28;20204;-46
2022/01/06 05:52:54;;;;;;;6.10;4.43;;;2.00;99.90;;;;;;5121289;28;20187;-46
2022/01/06 05:55:20;;;;;;;6.23;4.43;;;2.00;99.90;;;;;;5121360;28;20242;-46
2022/01/06 05:57:46;;;;;;;9.13;4.77;;;2.00;99.90;;;;;;5121157;28;20452;-46
2022/01/06 06:00:12;;;;;;;5.20;4.50;;;2.00;99.90;;;;;;5121112;28;20415;-46
2022/01/06 06:02:37;;;;;;;5.97;4.43;;;2.00;99.90;;;;;;5120895;28;20195;-46
2022/01/06 06:05:04;;;;;;;6.93;4.50;;;2.00;99.90;;;;;;5122139;27;20418;-46
2022/01/06 06:07:30;;;;;;;5.73;3.90;;;2.00;99.90;;;;;;5140643;27;20237;-47
2022/01/06 06:09:56;;;;;;;6.00;4.93;;;1.90;99.90;;;;;;5141897;27;20832;-46
2022/01/06 06:12:21;;;;;;;5.00;3.73;;;1.90;99.90;;;;;;5141090;27;20517;-46
2022/01/06 06:14:47;;;;;;;4.40;3.90;;;1.90;99.90;;;;;;5141718;27;20187;-46
2022/01/06 06:17:15;;;;;;;7.50;4.43;;;1.80;99.90;;;;;;5141583;27;20178;-47
2022/01/06 06:19:41;;;;;;;6.90;5.13;;;1.80;99.90;;;;;;5141560;27;20194;-46
2022/01/06 06:22:07;;;;;;;5.50;4.20;;;1.80;99.90;;;;;;5141651;27;20415;-46
2022/01/06 06:24:35;;;;;;;6.50;4.47;;;1.90;99.90;;;;;;5141290;27;20198;-46
2022/01/06 06:27:00;;;;;;;7.73;4.60;;;1.90;99.90;;;;;;5141387;27;20174;-46
2022/01/06 06:29:26;;;;;;;5.20;4.70;;;1.90;99.90;;;;;;5141078;27;20484;-46
2022/01/06 06:31:52;;;;;;;8.30;4.60;;;1.90;99.90;;;;;;5141257;27;20464;-46
2022/01/06 06:34:17;;;;;;;8.80;5.70;;;1.90;99.90;;;;;;5141307;27;20193;-46
2022/01/06 06:36:43;;;;;;;5.27;4.77;;;1.90;99.90;;;;;;5141422;27;20236;-46
2022/01/06 06:39:09;;;;;;;5.77;5.27;;;1.90;99.90;;;;;;5140128;27;20558;-46
2022/01/06 06:41:34;;;;;;;10.40;5.73;;;1.90;99.90;;;;;;5141101;27;20565;-46
2022/01/06 06:44:00;;;;;;;5.67;4.20;;;2.00;99.90;;;;;;5140930;27;20190;-46
2022/01/06 06:46:28;;;;;;;7.40;4.83;;;2.00;99.90;;;;;;5141322;27;20171;-46
2022/01/06 06:48:54;;;;;;;4.13;3.53;;;2.00;99.90;;;;;;5140737;27;20600;-46
2022/01/06 06:51:19;;;;;;;6.53;4.37;;;2.00;99.90;;;;;;5140533;27;20549;-46
2022/01/06 06:53:45;;;;;;;5.67;4.03;;;2.00;99.90;;;;;;5140746;27;20202;-46
2022/01/06 06:56:11;;;;;;;4.50;3.83;;;2.00;99.90;;;;;;5140912;27;20242;-46
2022/01/06 06:58:36;;;;;;;4.37;3.97;;;2.10;99.90;;;;;;5139909;27;20183;-46
2022/01/06 07:01:02;;;;;;;4.90;4.00;;;2.10;99.90;;;;;;5140332;27;20178;-46
2022/01/06 07:03:28;;;;;;;5.70;4.10;;;2.10;99.90;;;;;;5140297;27;20183;-46
2022/01/06 07:05:54;;;;;;;6.10;4.10;;;2.10;99.90;;;;;;5140383;27;20413;-46
2022/01/06 07:08:22;;;;;;;5.27;4.37;;;2.10;99.90;;;;;;5140015;27;20214;-46
2022/01/06 07:10:47;;;;;;;6.17;4.90;;;2.20;99.90;;;;;;5139988;27;20203;-46
2022/01/06 07:13:18;;;;;;;5.10;3.80;;;2.20;99.90;;;;;;5140247;27;20518;-46
2022/01/06 07:15:44;;;;;;;6.43;5.70;;;2.20;99.90;;;;;;5140706;27;20213;-46
2022/01/06 07:18:10;;;;;;;8.77;5.07;;;2.20;99.90;;;;;;5140378;27;20433;-46
2022/01/06 07:20:36;;;;;;;5.47;4.43;;;2.20;99.90;;;;;;5140450;27;20443;-46
2022/01/06 07:23:01;;;;;;;5.57;4.50;;;2.20;99.90;;;;;;5122544;27;20771;-46
2022/01/06 07:25:27;;;;;;;4.80;4.20;;;2.20;99.90;;;;;;5140023;27;20412;-46
2022/01/06 07:27:53;;;;;;;5.03;4.03;;;2.20;99.90;;;;;;5139668;27;20190;-46
2022/01/06 07:30:19;;;;;;;5.40;4.07;;;2.20;99.90;;;;;;5121855;27;20225;-46
2022/01/06 07:32:49;;;;;;;5.67;3.77;;;2.30;99.90;;;;;;5140221;27;20186;-46
2022/01/06 07:35:18;;;;;;;7.67;4.10;;;2.30;99.90;;;;;;5140290;27;20397;-46
2022/01/06 07:37:43;;;;;;;5.43;4.10;;;2.20;99.90;;;;;;5139625;27;20428;-46
2022/01/06 07:40:09;;;;;;;3.87;3.00;;;2.20;99.90;;;;;;5139077;27;20417;-46
2022/01/06 07:42:35;;;;;;;8.40;3.40;;;2.20;99.90;;;;;;5138640;27;20198;-46
2022/01/06 07:45:02;;;;;;;4.77;3.87;;;2.20;99.90;;;;;;5138739;27;20840;-46
2022/01/06 07:47:29;;;;;;;4.07;3.67;;;2.20;99.90;;;;;;5137658;27;20424;-46
2022/01/06 07:49:55;;;;;;;4.13;3.73;;;2.20;99.90;;;;;;5137669;27;20459;-46
2022/01/06 07:52:21;;;;;;;4.10;3.70;;;2.20;99.90;;;;;;5137775;27;20423;-46
2022/01/06 07:54:47;;;;;;;4.50;4.10;;;2.20;99.90;;;;;;5138218;27;20642;-46
2022/01/06 07:57:13;;;;;;;6.80;4.33;;;2.20;99.90;;;;;;5138090;27;20409;-47
2022/01/06 07:59:41;;;;;;;3.57;2.87;;;2.20;99.90;;;;;;5139433;27;20195;-46
2022/01/06 08:02:08;;;;;;;5.13;3.37;;;2.20;99.90;;;;;;5139203;27;20186;-46
2022/01/06 08:04:34;;;;;;;4.90;4.40;;;2.30;99.90;;;;;;5139360;27;20432;-46
2022/01/06 08:07:00;;;;;;;9.83;3.90;;;2.30;99.90;;;;;;5138503;27;20824;-46
2022/01/06 08:09:26;;;;;;;5.20;3.60;;;2.40;99.90;;;;;;5138685;27;20476;-46
2022/01/06 08:11:51;;;;;;;4.87;4.37;;;2.50;99.90;;;;;;5138595;27;20413;-46
2022/01/06 08:14:17;;;;;;;4.70;4.03;;;2.60;99.90;;;;;;5137493;27;20211;-46
2022/01/06 08:16:45;;;;;;;4.00;3.60;;;2.70;99.90;;;;;;5130082;27;20195;-46
2022/01/06 08:19:11;;;;;;;5.07;4.47;;;2.90;99.90;;;;;;5118692;28;20176;-46
2022/01/06 08:21:37;;;;;;;3.53;3.23;;;3.00;99.90;;;;;;5118528;28;20421;-46
2022/01/06 08:24:04;;;;;;;7.23;3.93;;;3.10;99.90;;;;;;5118598;28;20437;-46
2022/01/06 08:26:31;;;;;;;4.33;3.50;;;3.20;99.90;;;;;;5118450;28;20426;-46
2022/01/06 08:28:57;;;;;;;4.70;3.80;;;3.30;99.90;;;;;;5118076;28;20465;-46
2022/01/06 08:31:23;;;;;;;4.87;4.30;;;3.50;99.90;;;;;;5100094;28;20426;-46
2022/01/06 08:33:49;;;;;;;5.30;4.80;;;3.60;99.90;;;;;;5117923;28;20439;-46
2022/01/06 08:36:15;;;;;;;6.40;5.40;;;3.90;99.90;;;;;;5117348;28;20190;-46
2022/01/06 08:38:43;;;;;;;8.83;4.80;;;4.60;99.90;;;;;;5117031;28;20191;-46
2022/01/06 08:41:09;;;;;;;4.90;4.20;;;5.50;98.60;;;;;;5117781;28;20413;-46
2022/01/06 08:43:35;;;;;;;5.47;3.53;;;6.40;96.20;;;;;;5117778;28;20774;-46
2022/01/06 08:46:01;;;;;;;7.50;4.77;;;7.20;94.10;;;;;;5117806;28;20420;-46
2022/01/06 08:48:27;;;;;;;6.13;3.60;;;7.80;92.10;;;;;;5096655;28;20728;-46
2022/01/06 08:50:53;;;;;;;4.70;3.53;;;8.30;90.20;;;;;;5114224;28;20287;-46
2022/01/06 08:53:20;;;;;;;6.20;3.10;;;8.70;90.20;;;;;;5113885;28;20425;-46
2022/01/06 08:55:47;;;;;;;7.87;3.33;;;8.60;87.20;;;;;;5114568;28;20504;-46
2022/01/06 08:58:16;;;;;;;5.70;4.20;;;8.20;86.70;;;;;;5115269;28;20432;-46
2022/01/06 09:00:41;;;;;;;7.20;3.33;;;7.50;88.40;;;;;;5117983;28;20421;-46
2022/01/06 09:03:09;;;;;;;6.40;4.63;;;6.90;90.30;;;;;;5103583;28;20448;-46
2022/01/06 09:05:35;;;;;;;4.37;3.60;;;6.50;91.30;;;;;;5122662;28;20492;-46
2022/01/06 09:08:00;;;;;;;5.30;4.37;;;6.00;92.00;;;;;;5104434;28;20819;-46
2022/01/06 09:10:32;;;;;;;9.20;3.63;;;6.00;93.40;;;;;;5122225;28;20472;-47
2022/01/06 09:12:58;;;;;;;8.33;4.20;;;6.90;94.10;;;;;;5120523;28;20257;-47
2022/01/06 09:15:24;;;;;;;6.60;3.53;;;8.30;92.60;;;;;;5121892;28;20720;-47
2022/01/06 09:17:50;;;;;;;8.80;4.00;;;9.60;87.70;;;;;;5121461;28;20408;-47
2022/01/06 09:20:15;;;;;;;6.60;3.80;;;10.30;82.00;;;;;;5121919;28;20392;-45
2022/01/06 09:22:42;;;;;;;7.33;3.80;;;10.90;78.00;;;;;;5121882;28;20452;-45
2022/01/06 09:25:09;;;;;;;9.57;3.53;;;11.40;76.00;;;;;;5121819;28;20563;-45
2022/01/06 09:27:35;;;;;;;6.33;3.30;;;11.40;73.80;;;;;;5104055;28;20441;-48
2022/01/06 09:30:01;;;;;;;6.37;3.97;;;11.40;73.50;;;;;;5087051;28;20461;-47
2022/01/06 09:32:26;;;;;;;5.20;3.10;;;11.10;73.20;;;;;;5121394;28;20171;-46
2022/01/06 09:34:52;;;;;;;5.13;3.20;;;11.30;72.40;;;;;;5103449;28;20273;-46
2022/01/06 09:37:18;;;;;;;6.30;3.30;;;10.80;72.60;;;;;;5121292;28;20586;-46
2022/01/06 09:39:47;;;;;;;6.37;3.70;;;10.30;74.10;;;;;;5121385;27;20435;-46
2022/01/06 09:42:13;;;;;;;4.90;3.40;;;9.80;76.80;;;;;;5119971;28;20503;-46
2022/01/06 09:44:39;;;;;;;7.87;4.63;;;9.30;78.30;;;;;;5120616;28;20448;-46
2022/01/06 09:47:07;;;;;;;4.80;3.17;;;9.10;80.10;;;;;;5120987;28;20516;-46
2022/01/06 09:49:48;;;;;;;6.10;4.30;;;9.80;81.40;;;;;;5119002;28;20518;-46
2022/01/06 09:52:14;;;;;;;9.57;3.60;;;10.50;78.10;;;;;;5083664;28;20486;-47
2022/01/06 09:54:41;;;;;;;5.40;3.10;;;11.60;75.40;;;;;;5117632;28;20554;-47
2022/01/06 09:57:07;;;;;;;7.57;4.20;;;11.80;71.30;;;;;;5117657;28;20455;-46
2022/01/06 09:59:33;;;;;;;7.40;3.27;;;12.60;73.70;;;;;;5117716;28;20564;-46
2022/01/06 10:01:59;;;;;;;5.90;3.07;;;13.50;67.70;;;;;;5117723;28;20407;-46
2022/01/06 10:04:30;;;;;;;4.50;3.97;;;14.50;65.70;;;;;;5118213;28;20249;-46
2022/01/06 10:07:07;;;;;;;4.57;3.40;;;14.80;60.70;;;;;;5118332;28;20495;-46
2022/01/06 10:09:37;;;;;;;5.47;3.20;;;15.80;63.20;;;;;;5117464;28;20550;-46
2022/01/06 10:12:11;;;;;;;5.20;3.90;;;16.40;56.90;;;;;;5099921;28;20722;-46
2022/01/06 10:14:45;;;;;;;4.57;2.90;;;16.80;56.20;;;;;;5116745;28;20419;-46
2022/01/06 10:17:35;;;;;;;5.40;3.00;;;17.90;55.40;;;;;;5119301;28;20411;-46
2022/01/06 10:20:12;;;;;;;6.27;3.23;;;17.70;51.60;;;;;;5100377;28;20428;-46
2022/01/06 10:22:50;;;;;;;5.20;3.00;;;17.60;54.30;;;;;;5118861;28;20509;-47
2022/01/06 10:25:17;;;;;;;4.73;2.83;;;18.10;55.30;;;;;;5118138;28;20418;-45
2022/01/06 10:27:44;;;;;;;5.53;4.10;;;19.30;53.00;;;;;;5099840;28;20745;-49
2022/01/06 10:30:11;;;;;;;5.53;2.50;;;19.00;47.20;;;;;;5099879;28;20463;-45
2022/01/06 10:32:38;;;;;;;5.73;3.50;;;18.30;48.00;;;;;;5099448;28;20710;-45
2022/01/06 10:35:05;;;;;;;5.13;3.40;;;17.20;47.90;;;;;;5099983;28;20415;-46
2022/01/06 10:37:40;;;;;;;6.80;2.73;;;14.80;50.00;;;;;;5099156;28;20407;-45
2022/01/06 10:40:11;;;;;;;7.10;2.80;;;13.40;50.90;;;;;;5116935;28;20400;-46
2022/01/06 10:42:40;;;;;;;5.27;3.27;;;12.40;52.60;;;;;;5116057;28;20846;-46
2022/01/06 10:45:17;;;;;;;7.17;3.70;;;11.10;54.20;;;;;;5117225;28;20413;-46
2022/01/06 10:47:45;;;;;;;5.70;3.30;;;10.20;56.90;;;;;;5100692;28;20430;-46
2022/01/06 10:50:16;;;;;;;6.17;3.37;;;10.40;60.90;;;;;;5118323;28;20720;-46
2022/01/06 10:52:48;;;;;;;4.60;2.77;;;10.70;64.10;;;;;;5098730;28;20408;-46
2022/01/06 10:55:30;;;;;;;7.53;3.27;;;10.70;62.50;;;;;;5099162;28;20479;-46
2022/01/06 10:58:02;;;;;;;5.47;2.83;;;10.80;61.90;;;;;;5117263;28;20421;-46
2022/01/06 11:00:32;;;;;;;5.97;2.77;;;10.80;59.10;;;;;;5118278;28;20425;-46
2022/01/06 11:03:25;;;;;;;8.07;3.30;;;11.30;61.60;;;;;;5118701;28;20405;-46
2022/01/06 11:05:53;;;;;;;4.90;2.60;;;12.40;59.40;;;;;;5113281;28;20500;-47
2022/01/06 11:08:26;;;;;;;5.93;2.90;;;12.80;56.90;;;;;;5116987;28;20422;-47
2022/01/06 11:11:26;;;;;;;4.93;2.67;;;13.30;56.90;;;;;;5116845;28;20867;-47
2022/01/06 11:13:49;;;;;;;4.53;2.80;;;13.40;57.00;;;;;;5115326;28;20515;-47
2022/01/06 11:16:19;;;;;;;4.37;2.83;;;13.00;56.40;;;;;;5117266;28;20412;-46
2022/01/06 11:18:56;;;;;;;8.13;3.50;;;12.50;56.80;;;;;;5118505;28;20454;-46
2022/01/06 11:21:44;;;;;;;4.13;2.90;;;12.00;57.10;;;;;;5119366;28;20701;-47
2022/01/06 11:24:16;;;;;;;6.27;2.63;;;11.60;58.10;;;;;;5117601;28;20869;-45
2022/01/06 11:26:44;;;;;;;6.10;3.00;;;11.60;59.80;;;;;;5117599;28;20410;-45
2022/01/06 11:29:11;;;;;;;7.07;2.83;;;11.50;59.50;;;;;;5118239;28;20460;-45
2022/01/06 11:31:42;;;;;;;8.20;3.00;;;11.40;59.40;;;;;;5118460;28;20686;-45
2022/01/06 11:34:18;;;;;;;13.73;7.30;;;11.30;59.70;;;;;;5119038;28;20427;-46
2022/01/06 11:36:47;;;;;;;12.87;7.27;;;11.60;60.10;;;;;;5118585;28;20416;-46
2022/01/06 11:39:30;;;;;;;6.77;3.90;;;12.10;59.50;;;;;;5118994;28;20449;-46
2022/01/06 11:42:00;;;;;;;6.53;2.97;;;12.20;58.90;;;;;;5101196;28;20762;-45
2022/01/06 11:44:32;;;;;;;7.10;2.87;;;11.90;58.10;;;;;;5083280;28;20440;-45
2022/01/06 11:46:59;;;;;;;30.80;21.10;;;11.70;58.80;;;;;;5100397;28;20420;-45
2022/01/06 11:49:42;;;;;;;19.83;12.83;;;11.40;59.30;;;;;;5116281;28;20472;-46
2022/01/06 11:52:19;;;;;;;7.00;4.20;;;11.20;60.20;;;;;;5115905;28;20640;-46
2022/01/06 11:54:55;;;;;;;5.70;3.23;;;11.20;59.50;;;;;;5116372;28;20890;-46
2022/01/06 11:57:34;;;;;;;5.67;3.10;;;11.20;60.30;;;;;;5116399;28;20440;-46
2022/01/06 12:00:22;;;;;;;4.77;2.43;;;11.50;58.60;;;;;;5116666;28;20410;-46
2022/01/06 12:02:57;;;;;;;5.90;3.13;;;12.20;57.10;;;;;;5098756;28;20674;-46
2022/01/06 12:05:23;;;;;;;8.77;3.20;;;12.80;57.50;;;;;;5116966;28;20837;-48
2022/01/06 12:07:53;;;;;;;7.30;2.77;;;13.10;56.30;;;;;;5117311;28;20853;-46
2022/01/06 12:10:20;;;;;;;7.60;2.80;;;13.50;55.60;;;;;;5116915;28;20487;-40
2022/01/06 12:12:49;;;;;;;8.70;2.87;;;13.70;55.30;;;;;;5100109;28;20459;-39
2022/01/06 12:15:17;;;;;;;5.70;2.87;;;14.80;57.40;;;;;;5100728;28;20423;-42
2022/01/06 12:17:48;;;;;;;5.13;2.40;;;15.90;57.70;;;;;;5118495;28;20813;-40
2022/01/06 12:23:36;;;;;;;13.77;3.20;;;17.40;55.20;;;;;;5117582;28;20397;-41
2022/01/06 12:26:07;;;;;;;6.20;2.97;;;17.40;54.40;;;;;;5118119;28;20531;-39
2022/01/06 12:28:34;;;;;;;4.03;1.90;;;17.30;54.30;;;;;;5118154;28;20823;-40
2022/01/06 12:31:05;;;;;;;5.50;2.70;;;17.00;53.20;;;;;;5118038;28;20940;-40
2022/01/06 12:33:32;;;;;;;5.10;2.50;;;16.80;53.90;;;;;;5118356;28;20428;-41
2022/01/06 12:36:01;;;;;;;6.23;2.30;;;16.90;54.30;;;;;;5100458;28;20424;-43
2022/01/06 12:38:31;;;;;;;3.53;1.87;;;17.10;54.10;;;;;;5122420;27;20430;-41
2022/01/06 12:40:57;;;;;;;11.47;2.53;;;17.10;54.60;;;;;;5103359;28;21146;-42
2022/01/06 12:43:29;;;;;;;4.07;2.30;;;16.90;55.40;;;;;;5121778;27;20451;-42
2022/01/06 12:46:04;;;;;;;7.70;2.67;;;16.70;55.70;;;;;;5138801;27;20415;-41
2022/01/06 12:48:35;;;;;;;4.00;2.10;;;16.50;56.00;;;;;;5138623;27;20431;-41
2022/01/06 12:51:10;;;;;;;15.13;4.13;;;16.30;55.80;;;;;;5138874;28;20486;-42
2022/01/06 12:53:39;;;;;;;4.90;2.57;;;16.10;56.00;;;;;;5138297;28;20415;-41
2022/01/06 12:56:05;;;;;;;6.50;2.37;;;15.90;55.90;;;;;;5138493;28;20474;-43
2022/01/06 12:58:32;;;;;;;7.00;3.07;;;15.70;55.00;;;;;;5120095;28;20682;-43
2022/01/06 13:01:01;;;;;;;3.83;2.10;;;15.30;52.40;;;;;;5137249;28;20902;-41
2022/01/06 13:03:32;;;;;;;3.57;1.90;;;14.60;50.50;;;;;;5119664;28;20408;-40
2022/01/06 13:05:59;;;;;;;6.03;2.57;;;13.90;50.00;;;;;;5138151;28;20434;-42
2022/01/06 13:08:25;;;;;;;5.43;2.30;;;13.50;50.40;;;;;;5120650;28;20423;-43